PAYA Airport Information

Runway Information
Runway 02 Length 6475 ft width 150 ft
Elevation 18 ft Threshold 0 ft Heading 45
Runway 20 Length 6475 ft Width 150 ft
Elevation 30 ft Threshold 0 ft Heading 225
Runway 11 Length 7745 ft width 150 ft
Elevation 32 ft Threshold 0 ft Heading 135
Runway 29 Length 7745 ft Width 150 ft
Elevation 19 ft Threshold 0 ft Heading 315
Airport Frequencies
Airport Navaids
Type NDB Name Ocean Cape Frequency 385 KHZ
Type VOR-DME Name Yakutat Frequency 113300 KHZ
Airport Weather Information & NOTAM
ADDS - METARS form results

(1906 UTC 17 February 2019)
Data provider http://aviationweather.gov/metar/data/
 
METAR text: PAYA 171853Z AUTO 08007KT 1 1/2SM -SN BR BKN041 OVC050 M01/M03 A3043 RMK AO2 SLP305 P0001 T10111033 TSNO
Conditions at: PAYA (YAKUTAT , AK, US) observed 1853 UTC 17 February 2019
Temperature: -1.1°C (30°F)
Dewpoint: -3.3°C (26°F) [RH = 85%]
Pressure (altimeter): 30.43 inches Hg (1030.6 mb)
[Sea-level pressure: 1030.5 mb]
Winds: from the E (80 degrees) at 8 MPH (7 knots; 3.6 m/s)
Visibility: 1.50 miles (2.41 km)
Ceiling: 4100 feet AGL
Clouds: broken clouds at 4100 feet AGL
overcast cloud deck at 5000 feet AGL
Weather: -SN BR  (light snow, mist)

METAR text: PAYA 171845Z AUTO 06006KT 2SM -SN BR BKN042 OVC055 M01/M03 A3043 RMK AO2 P0001 T10111033 TSNO
Conditions at: PAYA (YAKUTAT , AK, US) observed 1845 UTC 17 February 2019
Temperature: -1.1°C (30°F)
Dewpoint: -3.3°C (26°F) [RH = 85%]
Pressure (altimeter): 30.43 inches Hg (1030.6 mb)
Winds: from the ENE (60 degrees) at 7 MPH (6 knots; 3.1 m/s)
Visibility: 2.00 miles (3.22 km)
Ceiling: 4200 feet AGL
Clouds: broken clouds at 4200 feet AGL
overcast cloud deck at 5500 feet AGL
Weather: -SN BR  (light snow, mist)

METAR text: PAYA 171838Z AUTO 06004KT 3SM -SN BR BKN040 OVC055 M02/M03 A3043 RMK AO2 P0001 T10171033 TSNO
Conditions at: PAYA (YAKUTAT , AK, US) observed 1838 UTC 17 February 2019
Temperature: -1.7°C (29°F)
Dewpoint: -3.3°C (26°F) [RH = 89%]
Pressure (altimeter): 30.43 inches Hg (1030.6 mb)
Winds: from the ENE (60 degrees) at 5 MPH (4 knots; 2.1 m/s)
Visibility: 3 miles ( 5 km)
Ceiling: 4000 feet AGL
Clouds: broken clouds at 4000 feet AGL
overcast cloud deck at 5500 feet AGL
Weather: -SN BR  (light snow, mist)

METAR text: PAYA 171828Z AUTO 06004KT 2SM -SN BR FEW022 BKN040 OVC060 M02/M03 A3043 RMK AO2 P0001 T10171033 TSNO
Conditions at: PAYA (YAKUTAT , AK, US) observed 1828 UTC 17 February 2019
Temperature: -1.7°C (29°F)
Dewpoint: -3.3°C (26°F) [RH = 89%]
Pressure (altimeter): 30.43 inches Hg (1030.6 mb)
Winds: from the ENE (60 degrees) at 5 MPH (4 knots; 2.1 m/s)
Visibility: 2.00 miles (3.22 km)
Ceiling: 4000 feet AGL
Clouds: few clouds at 2200 feet AGL
broken clouds at 4000 feet AGL
overcast cloud deck at 6000 feet AGL
Weather: -SN BR  (light snow, mist)

METAR text: PAYA 171819Z AUTO 06004KT 1SM -SN BR SCT022 BKN032 OVC060 M02/M03 A3043 RMK AO2 P0001 T10171033 TSNO RVRNO
Conditions at: PAYA (YAKUTAT , AK, US) observed 1819 UTC 17 February 2019
Temperature: -1.7°C (29°F)
Dewpoint: -3.3°C (26°F) [RH = 89%]
Pressure (altimeter): 30.43 inches Hg (1030.6 mb)
Winds: from the ENE (60 degrees) at 5 MPH (4 knots; 2.1 m/s)
Visibility: 1.00 miles (1.61 km)
Ceiling: 3200 feet AGL
Clouds: scattered clouds at 2200 feet AGL
broken clouds at 3200 feet AGL
overcast cloud deck at 6000 feet AGL
Weather: -SN BR  (light snow, mist)

Forecast for: PAYA (YAKUTAT , AK, US)
Text: PAYA 171739Z 1718/1818 05004KT 4SM -SN SCT025 OVC035
Forecast period: 1800 to 2000 UTC 17 February 2019
Forecast type: FROM: standard forecast or significant change
Winds: from the NE (50 degrees) at 5 MPH (4 knots; 2.1 m/s)
Visibility: 4 miles (6 km)
Ceiling: 3500 feet AGL
Clouds: scattered clouds at 2500 feet AGL
overcast cloud deck at 3500 feet AGL
Weather: -SN  (light snow)
Text: TEMPO 1718/1720 2SM -SN BKN025 OVC035
Forecast period: 1800 to 2000 UTC 17 February 2019
Forecast type: TEMPORARY: The following changes expected for less than half the time period
Visibility: 2.00 miles (3.22 km)
Ceiling: 2500 feet AGL
Clouds: broken clouds at 2500 feet AGL
overcast cloud deck at 3500 feet AGL
Weather: -SN  (light snow)
Text: FM172000 07006KT 2SM -SN BR OVC025 WS020/14030KT
Forecast period: 2000 UTC 17 February 2019 to 0100 UTC 18 February 2019
Forecast type: FROM: standard forecast or significant change
Winds: from the ENE (70 degrees) at 7 MPH (6 knots; 3.1 m/s)
Visibility: 2.00 miles (3.22 km)
Ceiling: 2500 feet AGL
Clouds: overcast cloud deck at 2500 feet AGL
Wind Shear: at 2000 feet ( 610 m) AGL, from the SE (140 degrees) at 34 MPH (30 knots; 15.6 m/s)
Weather: -SN BR  (light snow, mist)
Text: TEMPO 1720/1724 1SM -SN BR OVC020
Forecast period: 2000 UTC 17 February 2019 to 0000 UTC 18 February 2019
Forecast type: TEMPORARY: The following changes expected for less than half the time period
Visibility: 1.00 miles (1.61 km)
Ceiling: 2000 feet AGL
Clouds: overcast cloud deck at 2000 feet AGL
Weather: -SN BR  (light snow, mist)
Text: FM180100 08010G20KT 2SM -SN BR OVC008 WS020/13035KT
Forecast period: 0100 to 0600 UTC 18 February 2019
Forecast type: FROM: standard forecast or significant change
Winds: from the E (80 degrees) at 12 MPH (10 knots; 5.1 m/s)
gusting to 23 MPH (20 knots; 10.3 m/s)
Visibility: 2.00 miles (3.22 km)
Ceiling: 800 feet AGL
Clouds: overcast cloud deck at 800 feet AGL
Wind Shear: at 2000 feet ( 610 m) AGL, from the SE (130 degrees) at 40 MPH (35 knots; 18.2 m/s)
Weather: -SN BR  (light snow, mist)
Text: FM180600 10012G22KT 1/2SM SN OVC008 WS020/15050KT
Forecast period: 0600 to 1000 UTC 18 February 2019
Forecast type: FROM: standard forecast or significant change
Winds: from the E (100 degrees) at 14 MPH (12 knots; 6.2 m/s)
gusting to 25 MPH (22 knots; 11.3 m/s)
Visibility: 0.50 miles (0.80 km)
Ceiling: 800 feet AGL
Clouds: overcast cloud deck at 800 feet AGL
Wind Shear: at 2000 feet ( 610 m) AGL, from the SSE (150 degrees) at 57 MPH (50 knots; 26.0 m/s)
Weather: SN  (moderate snow)
Text: FM181000 20010KT 4SM -RASN BR SCT008 OVC015 AMD LTD TO CLD VIS AND WIND
Forecast period: 1000 to 1800 UTC 18 February 2019
Forecast type: FROM: standard forecast or significant change
Winds: from the SSW (200 degrees) at 12 MPH (10 knots; 5.1 m/s)
Visibility: 4 miles (6 km)
Ceiling: 1500 feet AGL
Clouds: scattered clouds at 800 feet AGL
overcast cloud deck at 1500 feet AGL
Weather: -RA -SN BR  (light rain, light snow, mist)